Time;durP1;ratioP1;P1;durP2;ratioP2;P2;SDS_P1;SDS_P2;PMS_P1;PMS_P2;Temp;Humidity;BMP_temperature;BMP_pressure;BME280_temperature;BME280_humidity;BME280_pressure;Samples;Min_cycle;Max_cycle;Signal;HPM_P1;HPM_P2
2022/03/12 00:00:34;;;;;;;4.80;2.75;;;;;;;19.22;37.13;97691.28;10010718;29;20547;-57
2022/03/12 00:05:58;;;;;;;4.85;2.60;;;;;;;19.21;37.08;97686.16;10012729;29;20054;-57
2022/03/12 00:11:20;;;;;;;4.70;2.97;;;;;;;19.19;37.17;97682.97;10011103;29;20490;-57
2022/03/12 00:16:40;;;;;;;5.15;3.00;;;;;;;19.17;37.19;97677.88;10012902;29;20050;-58
2022/03/12 00:22:03;;;;;;;3.95;2.45;;;;;;;19.15;37.13;97682.75;10017100;29;20080;-57
2022/03/12 00:27:22;;;;;;;4.95;2.55;;;;;;;19.13;36.91;97680.38;10028947;29;20049;-58
2022/03/12 00:32:42;;;;;;;6.43;2.75;;;;;;;19.13;36.98;97676.88;10017260;29;20061;-58
2022/03/12 00:38:02;;;;;;;5.50;2.53;;;;;;;19.11;36.73;97684.47;10016561;29;20064;-58
2022/03/12 00:43:22;;;;;;;4.20;2.63;;;;;;;19.10;36.75;97680.19;10028904;29;20046;-57
2022/03/12 00:48:42;;;;;;;3.92;2.60;;;;;;;19.07;36.83;97662.69;10028917;29;20057;-57
2022/03/12 00:54:01;;;;;;;4.80;2.55;;;;;;;19.06;36.53;97661.06;10016664;29;20065;-57
2022/03/12 00:59:20;;;;;;;4.75;2.30;;;;;;;19.04;36.82;97652.47;10016758;29;20066;-57
2022/03/12 01:04:40;;;;;;;4.80;2.40;;;;;;;19.04;36.70;97662.47;10016218;29;20076;-57
2022/03/12 01:10:00;;;;;;;4.25;2.13;;;;;;;19.02;36.55;97656.56;10016389;29;20107;-57
2022/03/12 01:15:19;;;;;;;3.85;2.38;;;;;;;19.01;36.73;97653.06;10001846;29;20065;-58
2022/03/12 01:20:41;;;;;;;3.00;2.28;;;;;;;19.01;36.62;97657.66;10015489;29;20064;-57
2022/03/12 01:26:00;;;;;;;3.60;2.17;;;;;;;18.98;36.55;97645.56;10027860;29;20064;-57
2022/03/12 01:31:20;;;;;;;3.25;2.10;;;;;;;18.96;36.46;97653.97;10015434;29;20065;-58
2022/03/12 01:36:39;;;;;;;3.60;2.05;;;;;;;18.94;36.44;97649.97;10015691;29;20119;-57
2022/03/12 01:41:59;;;;;;;3.78;2.08;;;;;;;18.93;36.35;97651.06;10027402;29;20073;-57
2022/03/12 01:47:20;;;;;;;3.85;2.33;;;;;;;18.91;36.44;97647.84;10015742;29;20092;-58
2022/03/12 01:52:39;;;;;;;2.85;2.00;;;;;;;18.91;36.47;97651.34;10019137;29;20065;-57
2022/03/12 01:58:02;;;;;;;3.78;2.20;;;;;;;18.88;36.29;97645.78;10021752;29;20114;-57
2022/03/12 02:03:26;;;;;;;3.38;1.90;;;;;;;18.88;36.31;97637.66;10012571;29;20069;-57
2022/03/12 02:08:49;;;;;;;3.83;2.00;;;;;;;18.84;36.46;97634.75;10033476;29;20046;-58
2022/03/12 02:14:10;;;;;;;2.70;1.90;;;;;;;18.84;36.42;97631.28;10021547;29;20050;-57
2022/03/12 02:19:31;;;;;;;2.65;1.85;;;;;;;18.82;36.51;97628.03;10018268;29;20058;-57
2022/03/12 02:24:52;;;;;;;3.25;2.08;;;;;;;18.81;36.38;97612.97;10019834;29;20073;-57
2022/03/12 02:30:12;;;;;;;4.70;1.90;;;;;;;18.81;36.45;97619.16;10021329;29;20065;-57
2022/03/12 02:35:35;;;;;;;3.90;1.77;;;;;;;18.77;36.26;97610.03;10019310;29;20652;-57
2022/03/12 02:40:55;;;;;;;3.03;2.00;;;;;;;18.75;36.44;97610.31;10020336;29;20053;-57
2022/03/12 02:46:15;;;;;;;3.33;1.83;;;;;;;18.74;36.23;97610.63;10032613;29;20038;-57
2022/03/12 02:51:35;;;;;;;2.60;1.60;;;;;;;18.74;36.23;97608.72;10019690;29;20050;-58
2022/03/12 02:56:55;;;;;;;2.35;1.67;;;;;;;18.72;36.17;97613.63;10020489;29;20663;-57
2022/03/12 03:02:14;;;;;;;2.83;1.88;;;;;;;18.69;36.18;97603.41;10019875;29;20074;-57
2022/03/12 03:07:35;;;;;;;2.85;1.65;;;;;;;18.69;36.37;97603.41;10019325;29;20078;-57
2022/03/12 03:12:58;;;;;;;1.83;1.65;;;;;;;18.68;36.15;97607.22;10031943;29;20050;-57
2022/03/12 03:18:21;;;;;;;1.90;1.60;;;;;;;18.67;36.11;97610.22;10018315;29;20114;-57
2022/03/12 03:23:43;;;;;;;2.83;1.88;;;;;;;18.66;36.15;97616.69;10018688;29;20137;-57
2022/03/12 03:29:03;;;;;;;1.98;1.55;;;;;;;18.63;35.95;97607.31;10011656;29;20451;-58
2022/03/12 03:34:23;;;;;;;2.55;1.70;;;;;;;18.62;36.07;97616.53;10018130;29;20510;-58
2022/03/12 03:39:43;;;;;;;2.00;1.60;;;;;;;18.61;36.06;97614.91;10018484;29;20088;-57
2022/03/12 03:45:03;;;;;;;2.65;1.77;;;;;;;18.59;36.06;97619.81;10018051;29;20053;-57
2022/03/12 03:50:26;;;;;;;1.80;1.50;;;;;;;18.56;35.74;97610.41;10017955;29;20154;-57
2022/03/12 03:55:46;;;;;;;1.48;1.25;;;;;;;18.56;35.99;97609.59;10009986;29;20502;-57
2022/03/12 04:01:14;;;;;;;2.50;1.45;;;;;;;18.54;35.94;97603.69;10030068;29;20042;-58
2022/03/12 04:06:38;;;;;;;1.90;1.60;;;;;;;18.53;35.87;97604.81;10017617;29;20061;-57
2022/03/12 04:11:57;;;;;;;1.95;1.60;;;;;;;18.52;35.77;97608.59;10017785;29;20559;-57
2022/03/12 04:17:18;;;;;;;3.25;1.55;;;;;;;18.51;35.78;97607.00;10016955;29;20053;-57
2022/03/12 04:22:38;;;;;;;2.03;1.55;;;;;;;18.48;35.72;97619.16;10029409;29;20050;-57
2022/03/12 04:27:59;;;;;;;2.33;1.50;;;;;;;18.47;35.80;97620.28;10016949;29;20129;-57
2022/03/12 04:33:19;;;;;;;2.03;1.40;;;;;;;18.47;35.66;97635.69;10016182;29;20197;-58
2022/03/12 04:38:39;;;;;;;2.20;1.55;;;;;;;18.45;35.76;97630.56;10029362;29;20057;-57
2022/03/12 04:43:58;;;;;;;1.88;1.40;;;;;;;18.44;35.70;97622.78;10015826;29;20058;-57
2022/03/12 04:49:18;;;;;;;1.55;1.25;;;;;;;18.42;35.73;97627.66;10016843;29;20053;-57
2022/03/12 04:54:39;;;;;;;1.65;1.50;;;;;;;18.41;35.71;97620.69;10016766;29;20677;-57
2022/03/12 05:00:02;;;;;;;1.98;1.40;;;;;;;18.39;35.77;97620.97;9992265;29;20061;-57
2022/03/12 05:05:23;;;;;;;1.67;1.30;;;;;;;18.36;35.61;97611.56;10004734;29;20050;-57
2022/03/12 05:10:44;;;;;;;1.92;1.35;;;;;;;18.36;35.71;97619.66;10028418;29;20038;-57
2022/03/12 05:16:06;;;;;;;1.40;1.30;;;;;;;18.35;35.70;97630.75;10015150;29;20062;-57
2022/03/12 05:21:26;;;;;;;1.63;1.20;;;;;;;18.33;35.50;97628.34;10015238;29;20133;-57
2022/03/12 05:26:45;;;;;;;1.67;1.23;;;;;;;18.33;35.62;97622.16;10009072;29;20066;-57
2022/03/12 05:32:05;;;;;;;1.80;1.30;;;;;;;18.32;35.51;97632.13;10022888;29;20058;-57
2022/03/12 05:37:25;;;;;;;1.20;1.10;;;;;;;18.30;35.47;97631.63;10035079;29;20056;-57
2022/03/12 05:42:47;;;;;;;1.27;1.02;;;;;;;18.28;35.56;97636.50;10021496;29;20065;-58
2022/03/12 05:48:08;;;;;;;1.58;1.15;;;;;;;18.27;35.68;97634.94;10021943;29;20054;-57
2022/03/12 05:53:32;;;;;;;1.50;1.10;;;;;;;18.28;35.54;97650.00;10022659;29;20566;-57
2022/03/12 05:58:51;;;;;;;1.48;1.00;;;;;;;18.27;35.64;97650.28;10034607;29;20050;-58
2022/03/12 06:04:11;;;;;;;1.63;1.20;;;;;;;18.28;35.67;97654.59;10021665;29;20065;-58
2022/03/12 06:09:32;;;;;;;2.25;1.30;;;;;;;18.28;35.57;97655.41;10034127;29;20057;-57
2022/03/12 06:14:54;;;;;;;1.30;1.10;;;;;;;18.30;35.62;97661.28;10021480;29;20058;-57
2022/03/12 06:20:16;;;;;;;1.42;1.15;;;;;;;18.32;35.67;97664.50;9988725;29;20061;-57
2022/03/12 06:25:35;;;;;;;1.27;1.17;;;;;;;18.34;35.41;97656.91;10034057;29;20042;-57
2022/03/12 06:30:55;;;;;;;1.75;1.30;;;;;;;18.37;35.58;97669.03;10020929;29;20064;-57
2022/03/12 06:36:15;;;;;;;1.63;1.30;;;;;;;18.37;35.59;97667.13;10020195;29;20062;-57
2022/03/12 06:41:39;;;;;;;1.40;1.20;;;;;;;18.38;35.64;97660.66;10012429;29;20105;-58
2022/03/12 06:47:00;;;;;;;1.50;1.05;;;;;;;18.42;35.40;97673.53;10032229;29;20114;-58
2022/03/12 06:52:20;;;;;;;1.50;1.30;;;;;;;18.43;35.51;97686.72;10032927;29;20482;-58
2022/03/12 06:57:40;;;;;;;1.38;1.20;;;;;;;18.47;35.56;97686.94;10032906;29;20050;-57
2022/03/12 07:03:00;;;;;;;1.17;1.08;;;;;;;18.51;35.58;97698.75;10020723;29;20083;-57
2022/03/12 07:08:20;;;;;;;1.17;1.08;;;;;;;18.53;35.54;97705.44;10019681;29;20061;-57
2022/03/12 07:13:40;;;;;;;1.00;0.90;;;;;;;18.58;35.55;97699.16;10032268;29;20049;-58
2022/03/12 07:19:01;;;;;;;1.73;1.20;;;;;;;18.61;35.50;97695.88;10016886;29;20066;-57
2022/03/12 07:24:21;;;;;;;2.70;1.45;;;;;;;18.66;35.25;97706.59;10019222;29;20058;-58
2022/03/12 07:29:42;;;;;;;1.30;1.00;;;;;;;18.70;35.27;97713.00;10019347;29;20072;-57
2022/03/12 07:35:06;;;;;;;1.35;1.20;;;;;;;18.74;35.48;97715.91;10016104;29;20514;-58
2022/03/12 07:40:25;;;;;;;1.30;1.10;;;;;;;18.78;35.16;97706.91;10018662;29;20065;-58
2022/03/12 07:45:44;;;;;;;1.30;1.10;;;;;;;18.84;35.14;97714.97;10016478;29;20062;-58
2022/03/12 07:51:04;;;;;;;1.10;1.00;;;;;;;18.90;35.17;97727.28;10017730;29;20118;-57
2022/03/12 07:56:23;;;;;;;1.20;1.10;;;;;;;18.95;35.06;97725.28;10012761;29;20155;-58
2022/03/12 08:01:43;;;;;;;0.93;0.90;;;;;;;19.02;35.49;97729.50;10017301;29;20058;-58
2022/03/12 08:07:03;;;;;;;5.22;1.30;;;;;;;19.07;35.67;97724.81;10017782;29;20066;-57
2022/03/12 08:12:24;;;;;;;3.63;1.10;;;;;;;19.13;35.72;97726.31;10015692;29;20061;-57
2022/03/12 08:17:45;;;;;;;1.30;1.20;;;;;;;19.19;35.78;97724.31;10016578;29;20069;-58
2022/03/12 08:23:05;;;;;;;1.35;1.25;;;;;;;19.25;35.76;97727.69;10016478;29;20584;-58
2022/03/12 08:28:26;;;;;;;1.27;1.17;;;;;;;19.30;35.76;97727.59;10017186;29;20084;-58
2022/03/12 08:33:46;;;;;;;2.22;1.20;;;;;;;19.36;35.79;97712.88;10013461;29;20054;-57
2022/03/12 08:39:06;;;;;;;0.90;0.80;;;;;;;19.41;35.71;97718.22;10014275;29;20065;-58
2022/03/12 08:44:25;;;;;;;1.27;1.17;;;;;;;19.47;35.63;97721.59;10014157;29;20050;-57
2022/03/12 08:49:45;;;;;;;1.08;0.98;;;;;;;19.52;35.62;97708.81;10011401;29;20058;-58
2022/03/12 08:55:06;;;;;;;1.42;1.05;;;;;;;19.57;35.63;97713.28;10029087;29;20057;-58
2022/03/12 09:00:25;;;;;;;1.60;1.05;;;;;;;19.63;35.67;97705.88;10018346;29;20426;-58
2022/03/12 09:05:45;;;;;;;1.20;1.02;;;;;;;19.68;35.56;97713.88;10011127;29;20050;-58
2022/03/12 09:11:05;;;;;;;1.10;1.00;;;;;;;19.73;35.51;97708.38;10036240;29;20049;-57
2022/03/12 09:16:25;;;;;;;1.10;1.00;;;;;;;19.79;35.57;97699.06;10019816;29;20490;-58
2022/03/12 09:21:44;;;;;;;1.10;1.00;;;;;;;19.84;35.55;97700.88;10023314;29;20429;-58
2022/03/12 09:27:05;;;;;;;1.02;0.93;;;;;;;19.90;35.34;97691.53;10022580;29;20460;-58
2022/03/12 09:32:25;;;;;;;1.65;1.02;;;;;;;19.93;35.25;97682.81;10022660;29;20418;-58
2022/03/12 09:37:46;;;;;;;0.98;0.90;;;;;;;19.97;35.41;97678.38;10033946;29;20057;-58
2022/03/12 09:43:06;;;;;;;2.55;1.20;;;;;;;20.00;35.39;97677.78;10016875;29;20050;-57
2022/03/12 09:48:27;;;;;;;1.10;1.00;;;;;;;20.04;35.17;97672.56;10034604;29;20042;-58
2022/03/12 09:53:46;;;;;;;3.28;1.10;;;;;;;20.07;35.27;97671.94;10020821;29;20053;-58
2022/03/12 09:59:06;;;;;;;1.17;1.08;;;;;;;20.10;35.24;97676.75;10032281;29;20122;-57
2022/03/12 10:04:26;;;;;;;1.27;0.85;;;;;;;20.12;35.19;97674.53;10033198;29;20057;-58
2022/03/12 10:09:45;;;;;;;1.60;1.10;;;;;;;20.12;35.26;97666.41;10019208;29;20054;-58
2022/03/12 10:15:05;;;;;;;1.85;1.10;;;;;;;20.15;35.07;97658.50;10029937;29;20057;-57
2022/03/12 10:20:24;;;;;;;2.50;0.93;;;;;;;20.18;34.97;97656.28;10021703;29;20058;-58
2022/03/12 10:25:45;;;;;;;1.45;1.10;;;;;;;20.19;35.16;97655.97;10021922;29;20057;-58
2022/03/12 10:31:05;;;;;;;2.53;0.93;;;;;;;20.20;35.11;97660.28;10021279;29;20066;-57
2022/03/12 10:36:25;;;;;;;1.25;0.90;;;;;;;20.21;35.17;97653.75;10021031;29;20057;-58
2022/03/12 10:41:44;;;;;;;1.30;0.80;;;;;;;20.22;35.20;97647.22;10033327;29;20046;-58
2022/03/12 10:47:22;;;;;;;0.80;0.77;;;;;;;20.25;35.07;97643.13;10020760;29;20050;-58
2022/03/12 10:52:47;;;;;;;0.90;0.80;;;;;;;20.25;35.18;97635.81;10020667;29;20050;-57
2022/03/12 10:58:16;;;;;;;2.10;1.00;;;;;;;20.25;35.18;97622.28;10007640;29;20405;-58
2022/03/12 11:03:37;;;;;;;1.75;1.10;;;;;;;20.26;35.17;97628.47;10033046;29;20050;-58
2022/03/12 11:08:56;;;;;;;1.60;0.93;;;;;;;20.26;35.19;97623.06;10032953;29;20050;-57
2022/03/12 11:14:20;;;;;;;1.70;0.90;;;;;;;20.26;35.13;97626.56;10019775;29;20113;-58
2022/03/12 11:19:42;;;;;;;0.80;0.80;;;;;;;20.26;35.12;97618.44;10019593;29;20118;-58
2022/03/12 11:25:02;;;;;;;0.80;0.80;;;;;;;20.25;35.08;97611.47;10019411;29;20083;-58
2022/03/12 11:30:22;;;;;;;1.20;0.90;;;;;;;20.27;35.19;97605.75;10019879;29;20069;-57
2022/03/12 11:35:45;;;;;;;1.92;1.00;;;;;;;20.26;35.07;97610.34;10018879;29;20117;-57
2022/03/12 11:41:09;;;;;;;0.95;0.80;;;;;;;20.27;35.21;97606.53;10019111;29;20586;-57
2022/03/12 11:46:29;;;;;;;2.28;0.90;;;;;;;20.27;35.25;97594.91;10019035;29;20479;-57
2022/03/12 11:51:49;;;;;;;1.10;0.80;;;;;;;20.26;35.24;97594.09;10019315;29;20517;-58
2022/03/12 11:57:09;;;;;;;1.13;0.85;;;;;;;20.27;35.15;97587.59;10018679;29;20103;-57
2022/03/12 12:02:34;;;;;;;0.98;0.88;;;;;;;20.27;35.15;97584.88;10018728;29;20081;-57
2022/03/12 12:07:55;;;;;;;1.10;1.00;;;;;;;20.26;35.13;97569.75;10018263;29;20062;-57
2022/03/12 12:13:16;;;;;;;1.00;0.90;;;;;;;20.28;35.38;97570.22;10017668;29;20115;-58
2022/03/12 12:18:36;;;;;;;0.77;0.75;;;;;;;20.27;35.29;97557.84;10017321;29;20054;-57
2022/03/12 12:23:59;;;;;;;0.80;0.80;;;;;;;20.27;34.99;97557.84;10018024;29;20092;-58
2022/03/12 12:29:41;;;;;;;1.00;0.70;;;;;;;20.26;35.21;97545.41;10017957;29;20061;-58
2022/03/12 12:35:04;;;;;;;1.60;0.90;;;;;;;20.26;35.24;97541.91;10016407;29;20057;-57
2022/03/12 12:40:32;;;;;;;1.05;0.88;;;;;;;20.25;35.19;97545.72;10017526;29;20054;-58
2022/03/12 12:45:51;;;;;;;0.80;0.70;;;;;;;20.25;35.42;97534.91;10003545;29;20498;-58
2022/03/12 12:51:12;;;;;;;1.35;0.90;;;;;;;20.24;35.34;97531.38;10029580;29;20042;-57
2022/03/12 12:56:35;;;;;;;0.90;0.90;;;;;;;20.24;35.26;97539.50;10029392;29;20054;-58
2022/03/12 13:01:58;;;;;;;1.80;0.80;;;;;;;20.24;35.28;97522.47;10016910;29;20058;-58
2022/03/12 13:07:22;;;;;;;0.77;0.73;;;;;;;20.23;35.43;97524.38;10016755;29;20069;-58
2022/03/12 13:12:43;;;;;;;0.80;0.80;;;;;;;20.23;35.39;97520.88;10016074;29;20065;-59
2022/03/12 13:18:19;;;;;;;1.08;0.88;;;;;;;20.22;35.44;97509.25;10016533;29;20056;-57
2022/03/12 13:23:46;;;;;;;0.90;0.82;;;;;;;20.22;35.40;97511.16;10016803;29;20498;-58
2022/03/12 13:29:09;;;;;;;1.00;0.90;;;;;;;20.20;35.38;97500.66;10016459;29;20088;-58
2022/03/12 13:34:29;;;;;;;0.70;0.70;;;;;;;20.20;35.34;97503.34;10015948;29;20497;-57
2022/03/12 13:39:48;;;;;;;0.80;0.80;;;;;;;20.20;35.50;97495.25;10015894;29;20110;-58
2022/03/12 13:45:10;;;;;;;0.80;0.80;;;;;;;20.20;35.49;97492.53;10015941;29;20049;-57
2022/03/12 13:50:30;;;;;;;0.80;0.80;;;;;;;20.20;35.37;97481.72;10022419;29;20068;-57
2022/03/12 13:55:50;;;;;;;0.88;0.80;;;;;;;20.20;35.45;97484.41;10022956;29;20070;-57
2022/03/12 14:01:10;;;;;;;0.82;0.82;;;;;;;20.20;35.46;97484.41;10022942;29;20137;-58
2022/03/12 14:06:39;;;;;;;0.80;0.70;;;;;;;20.19;35.48;97477.44;10022319;29;20059;-58
2022/03/12 14:11:59;;;;;;;0.98;0.85;;;;;;;20.20;35.67;97473.59;10022386;29;20069;-57
2022/03/12 14:17:29;;;;;;;0.95;0.75;;;;;;;20.18;35.42;97456.88;10022046;29;20057;-57
2022/03/12 14:22:52;;;;;;;0.73;0.73;;;;;;;20.18;35.42;97461.50;10021440;29;20148;-57
2022/03/12 14:28:13;;;;;;;1.05;0.85;;;;;;;20.16;35.61;97453.69;10021867;29;20566;-57
2022/03/12 14:33:32;;;;;;;0.60;0.60;;;;;;;20.15;35.55;97446.69;10020919;29;20050;-57
2022/03/12 14:38:52;;;;;;;1.13;0.80;;;;;;;20.14;35.61;97454.00;10021400;29;20061;-57
2022/03/12 14:44:12;;;;;;;0.77;0.77;;;;;;;20.12;35.67;97448.09;10020918;29;20084;-57
2022/03/12 14:49:37;;;;;;;0.63;0.63;;;;;;;20.13;35.74;97451.59;10020952;29;20078;-57
2022/03/12 14:54:58;;;;;;;0.70;0.70;;;;;;;20.14;35.63;97443.19;10021110;29;20450;-58
2022/03/12 15:00:21;;;;;;;1.20;0.90;;;;;;;20.17;35.52;97449.06;10020186;29;20064;-58
2022/03/12 15:05:40;;;;;;;0.70;0.70;;;;;;;20.15;35.82;97452.91;10020399;29;20061;-57
2022/03/12 15:11:04;;;;;;;0.63;0.63;;;;;;;20.16;35.79;97445.56;10019949;29;20060;-57
2022/03/12 15:16:28;;;;;;;0.85;0.73;;;;;;;20.17;35.77;97454.47;9996565;29;20050;-58
2022/03/12 15:21:55;;;;;;;0.60;0.60;;;;;;;20.15;35.91;97446.69;10020292;29;20054;-57
2022/03/12 15:27:14;;;;;;;0.73;0.68;;;;;;;20.14;35.80;97445.09;10031829;29;20046;-58
2022/03/12 15:32:35;;;;;;;0.82;0.82;;;;;;;20.14;35.65;97445.88;10026551;29;20052;-58
2022/03/12 15:37:54;;;;;;;0.60;0.57;;;;;;;20.13;35.74;97440.78;10003718;29;20050;-58
2022/03/12 15:43:14;;;;;;;0.75;0.73;;;;;;;20.12;35.85;97440.00;10045716;29;20482;-58
2022/03/12 15:48:34;;;;;;;0.73;0.73;;;;;;;20.10;35.85;97438.72;10018597;29;20057;-57
2022/03/12 15:53:53;;;;;;;0.60;0.60;;;;;;;20.10;35.87;97434.09;10018080;29;20410;-58
2022/03/12 15:59:12;;;;;;;1.17;0.95;;;;;;;20.10;35.84;97444.13;10016780;29;20061;-58
2022/03/12 16:04:31;;;;;;;0.60;0.60;;;;;;;20.08;35.91;97439.03;10017492;29;20058;-58
2022/03/12 16:09:51;;;;;;;0.68;0.60;;;;;;;20.06;35.89;97435.03;10029655;29;20049;-58
2022/03/12 16:15:13;;;;;;;0.73;0.73;;;;;;;20.04;35.93;97435.34;10021660;29;20066;-58
2022/03/12 16:20:34;;;;;;;0.70;0.70;;;;;;;20.03;35.76;97435.66;10013071;29;20068;-57
2022/03/12 16:26:02;;;;;;;0.80;0.80;;;;;;;20.02;35.72;97425.97;10014730;29;20050;-58
2022/03/12 16:31:21;;;;;;;1.42;0.90;;;;;;;20.00;35.83;97428.19;10015066;29;20054;-58
2022/03/12 16:36:44;;;;;;;0.88;0.88;;;;;;;19.97;35.78;97434.97;10028253;29;20106;-57
2022/03/12 16:42:03;;;;;;;0.80;0.80;;;;;;;19.97;35.91;97429.56;10016312;29;20113;-57
2022/03/12 16:47:23;;;;;;;0.60;0.60;;;;;;;19.95;35.72;97431.78;10012375;29;20065;-58
2022/03/12 16:52:42;;;;;;;1.75;0.70;;;;;;;19.93;35.66;97434.00;10028377;29;20102;-58
2022/03/12 16:58:03;;;;;;;1.05;0.95;;;;;;;19.91;35.59;97431.63;10015911;29;20061;-58
2022/03/12 17:03:23;;;;;;;1.15;0.70;;;;;;;19.90;35.67;97440.06;10016383;29;20061;-57
2022/03/12 17:08:43;;;;;;;0.90;0.70;;;;;;;19.90;35.74;97443.56;10015752;29;20054;-58
2022/03/12 17:14:03;;;;;;;1.10;0.80;;;;;;;19.88;35.69;97437.66;10015853;29;20057;-58
2022/03/12 17:19:26;;;;;;;0.85;0.80;;;;;;;19.86;35.57;97436.38;10022666;29;20073;-57
2022/03/12 17:24:48;;;;;;;0.98;0.80;;;;;;;19.84;35.72;97439.41;10023018;29;20482;-57
2022/03/12 17:30:10;;;;;;;1.00;0.80;;;;;;;19.84;35.66;97452.91;10034331;29;20517;-58
2022/03/12 17:35:30;;;;;;;1.35;1.00;;;;;;;19.81;35.67;97453.50;10032925;29;20050;-58
2022/03/12 17:40:51;;;;;;;0.70;0.60;;;;;;;19.79;35.58;97444.91;10031417;29;20042;-58
2022/03/12 17:46:12;;;;;;;1.02;0.90;;;;;;;19.78;35.54;97440.63;10035101;29;20049;-58
2022/03/12 17:51:34;;;;;;;1.23;1.00;;;;;;;19.77;35.70;97432.81;10009864;29;20501;-58
2022/03/12 17:56:54;;;;;;;1.58;0.82;;;;;;;19.75;35.57;97441.25;10022434;29;20062;-57
2022/03/12 18:02:13;;;;;;;1.15;0.70;;;;;;;19.73;35.51;97454.28;10033357;29;20042;-57
2022/03/12 18:07:33;;;;;;;2.40;0.90;;;;;;;19.73;35.44;97448.88;10022059;29;20054;-58
2022/03/12 18:12:54;;;;;;;1.15;0.93;;;;;;;19.71;35.51;97442.94;10021047;29;20429;-58
2022/03/12 18:18:15;;;;;;;0.73;0.70;;;;;;;19.70;35.46;97439.44;10009566;29;20057;-57
2022/03/12 18:23:37;;;;;;;2.20;0.90;;;;;;;19.67;35.44;97442.75;10037258;29;20125;-57
2022/03/12 18:28:58;;;;;;;0.95;0.73;;;;;;;19.66;35.27;97434.94;10039072;29;20412;-58
2022/03/12 18:34:18;;;;;;;1.55;1.20;;;;;;;19.65;35.26;97438.78;10019584;29;20570;-57
2022/03/12 18:39:37;;;;;;;0.90;0.80;;;;;;;19.64;35.25;97442.56;10020805;29;20155;-58
2022/03/12 18:44:57;;;;;;;0.80;0.80;;;;;;;19.63;35.28;97449.09;10020868;29;20058;-57
2022/03/12 18:50:18;;;;;;;1.02;0.85;;;;;;;19.61;35.28;97454.81;10020069;29;20057;-57
2022/03/12 18:55:37;;;;;;;1.02;0.90;;;;;;;19.59;35.42;97448.91;10016440;29;20121;-58
2022/03/12 19:00:58;;;;;;;1.17;0.90;;;;;;;19.57;35.32;97443.00;9983844;29;20392;-57
2022/03/12 19:06:17;;;;;;;1.05;0.90;;;;;;;19.56;35.25;97444.94;10019634;29;20110;-57
2022/03/12 19:11:37;;;;;;;1.33;0.90;;;;;;;19.54;35.06;97447.16;10032685;29;20050;-58
2022/03/12 19:16:57;;;;;;;1.63;1.00;;;;;;;19.52;35.02;97441.25;10032383;29;20056;-57
2022/03/12 19:22:16;;;;;;;1.00;0.95;;;;;;;19.52;35.19;97441.25;10019478;29;20126;-57
2022/03/12 19:27:36;;;;;;;1.00;0.82;;;;;;;19.51;35.19;97436.94;10019935;29;20626;-57
2022/03/12 19:32:56;;;;;;;1.13;1.00;;;;;;;19.47;35.14;97433.25;10018983;29;20487;-58
2022/03/12 19:38:17;;;;;;;1.02;0.90;;;;;;;19.47;35.10;97438.66;10019106;29;20054;-58
2022/03/12 19:43:36;;;;;;;1.73;1.00;;;;;;;19.46;35.16;97430.84;10030917;29;20497;-57
2022/03/12 19:48:56;;;;;;;1.08;0.90;;;;;;;19.43;35.15;97426.88;10019018;29;20061;-58
2022/03/12 19:54:16;;;;;;;1.10;1.00;;;;;;;19.42;35.04;97427.97;10018827;29;20500;-57
2022/03/12 19:59:35;;;;;;;0.75;0.75;;;;;;;19.41;35.05;97429.09;10030981;29;20045;-58
2022/03/12 20:04:55;;;;;;;1.20;1.10;;;;;;;19.39;35.10;97425.91;10018420;29;20482;-58
2022/03/12 20:10:15;;;;;;;0.80;0.80;;;;;;;19.38;35.02;97432.38;10018264;29;20437;-57
2022/03/12 20:15:35;;;;;;;1.15;1.02;;;;;;;19.36;34.97;97431.91;10017923;29;20066;-57
2022/03/12 20:20:56;;;;;;;1.35;0.90;;;;;;;19.35;35.03;97427.63;10017472;29;20062;-57
2022/03/12 20:26:15;;;;;;;1.38;1.00;;;;;;;19.34;35.03;97431.41;10017644;29;20050;-58
2022/03/12 20:31:38;;;;;;;1.50;1.05;;;;;;;19.31;34.85;97440.94;10017694;29;20057;-57
2022/03/12 20:36:58;;;;;;;1.60;1.05;;;;;;;19.31;34.93;97434.75;10017088;29;20049;-57
2022/03/12 20:42:18;;;;;;;1.77;1.10;;;;;;;19.29;35.01;97432.34;10017189;29;20058;-58
2022/03/12 20:47:39;;;;;;;2.63;1.00;;;;;;;19.28;34.88;97430.72;10017320;29;20062;-58
2022/03/12 20:52:59;;;;;;;1.10;1.00;;;;;;;19.27;34.90;97434.56;10017157;29;20065;-57
2022/03/12 20:58:18;;;;;;;1.20;1.10;;;;;;;19.26;35.03;97438.34;10022304;29;20084;-57
2022/03/12 21:03:39;;;;;;;1.23;1.02;;;;;;;19.25;34.97;97435.94;10024999;29;20602;-57
2022/03/12 21:08:58;;;;;;;1.98;1.40;;;;;;;19.23;35.04;97432.75;10024101;29;20054;-58
2022/03/12 21:14:19;;;;;;;1.13;1.02;;;;;;;19.24;34.86;97439.78;10024370;29;20058;-58
2022/03/12 21:19:38;;;;;;;1.40;1.30;;;;;;;19.23;34.86;97432.75;10023923;29;20065;-57
2022/03/12 21:25:04;;;;;;;1.30;1.20;;;;;;;19.23;34.99;97419.25;10036535;29;20046;-57
2022/03/12 21:30:24;;;;;;;1.25;1.15;;;;;;;19.24;34.88;97428.97;10036200;29;20046;-57
2022/03/12 21:35:44;;;;;;;1.15;0.93;;;;;;;19.27;34.92;97441.88;10035447;29;20050;-57
2022/03/12 21:41:04;;;;;;;1.40;1.30;;;;;;;19.29;34.86;97426.16;10024107;29;20049;-57
2022/03/12 21:46:24;;;;;;;1.40;1.30;;;;;;;19.29;34.80;97424.25;10023379;29;20077;-58
2022/03/12 21:51:48;;;;;;;1.50;1.20;;;;;;;19.32;34.65;97428.22;10023316;29;20559;-57
2022/03/12 21:57:07;;;;;;;1.67;1.20;;;;;;;19.35;34.76;97419.50;10022955;29;20102;-57
2022/03/12 22:02:28;;;;;;;1.20;1.05;;;;;;;19.38;34.68;97418.09;10034861;29;20046;-58
2022/03/12 22:07:48;;;;;;;1.25;1.15;;;;;;;19.43;34.61;97417.97;10033783;29;20042;-57
2022/03/12 22:13:08;;;;;;;1.95;1.40;;;;;;;19.44;34.74;97417.66;10022412;29;20069;-57
2022/03/12 22:18:28;;;;;;;1.42;1.33;;;;;;;19.48;34.66;97413.25;10021860;29;20407;-57
2022/03/12 22:23:50;;;;;;;1.40;1.30;;;;;;;19.50;34.70;97405.63;10021998;29;20065;-58
2022/03/12 22:29:09;;;;;;;1.30;1.17;;;;;;;19.54;34.71;97403.09;10021863;29;20061;-57
2022/03/12 22:34:30;;;;;;;1.80;1.30;;;;;;;19.55;34.74;97383.88;10020925;29;20062;-57
2022/03/12 22:39:49;;;;;;;1.40;1.27;;;;;;;19.56;34.57;97379.25;10032167;29;20049;-58
2022/03/12 22:45:09;;;;;;;1.92;1.10;;;;;;;19.58;34.44;97363.53;10017380;29;20470;-57
2022/03/12 22:50:30;;;;;;;1.40;1.30;;;;;;;19.59;34.57;97370.53;10018494;29;20447;-58
2022/03/12 22:55:50;;;;;;;1.35;1.25;;;;;;;19.60;34.49;97365.91;10019342;29;20054;-57
2022/03/12 23:01:31;;;;;;;1.33;1.10;;;;;;;19.60;34.31;97377.53;10030375;29;20049;-57
2022/03/12 23:12:29;;;;;;;1.75;1.50;;;;;;;19.62;34.33;97371.81;10018251;29;20107;-58
2022/03/12 23:17:49;;;;;;;1.73;1.40;;;;;;;19.62;34.41;97374.50;10024293;29;20049;-57
2022/03/12 23:23:09;;;;;;;1.38;1.27;;;;;;;19.64;34.36;97372.28;10017199;29;20053;-58
2022/03/12 23:28:28;;;;;;;1.55;1.35;;;;;;;19.63;34.14;97370.72;10018542;29;20061;-58
2022/03/12 23:33:47;;;;;;;1.73;1.40;;;;;;;19.62;34.35;97364.53;10014745;29;20402;-58
2022/03/12 23:39:07;;;;;;;1.42;1.30;;;;;;;19.63;34.32;97359.91;10027979;29;20053;-58
2022/03/12 23:44:28;;;;;;;1.30;1.20;;;;;;;19.62;34.18;97364.53;10025957;29;20045;-58
2022/03/12 23:49:49;;;;;;;1.30;1.17;;;;;;;19.63;34.17;97359.91;10013160;29;20054;-57
2022/03/12 23:55:10;;;;;;;1.45;1.30;;;;;;;19.63;34.50;97363.41;10024964;29;20490;-58
